Terminal Aerodrome Forecast
Issued by NWS Lubbock, TX

Home | Current Version | Previous Version | Text Only | Print | Product List | Glossary On
Versions: 1 2 3 4 5 6 7 8 9 10 11 12 13 14 15 16 17 18 19 20 21
000
FTUS44 KLUB 291100 RRA
TAFLBB
TAF
KLBB 291142Z 2912/3012 02006KT P6SM FEW007 SCT025 SCT250
      TEMPO 2912/2915 3SM BR SCT005 BKN008
     FM291700 VRB06KT P6SM FEW080 SCT250=

USA.gov is the U.S. government's official web portal to all federal, state and local government web resources and services.